Time;durP1;ratioP1;P1;durP2;ratioP2;P2;SDS_P1;SDS_P2;PMS_P1;PMS_P2;Temp;Humidity;BMP_temperature;BMP_pressure;BME280_temperature;BME280_humidity;BME280_pressure;Samples;Min_cycle;Max_cycle;Signal;HPM_P1;HPM_P2
2023/07/17 00:01:22;;;;;;;6.60;5.18;;;20.30;99.90;;;;;;5079666;28;20025;-76
2023/07/17 00:03:48;;;;;;;7.78;4.63;;;20.30;99.90;;;;;;5084764;28;20028;-75
2023/07/17 00:06:14;;;;;;;7.88;5.20;;;20.30;99.90;;;;;;5079693;28;20031;-75
2023/07/17 00:08:39;;;;;;;7.38;5.00;;;20.40;99.90;;;;;;5090667;28;20480;-76
2023/07/17 00:11:05;;;;;;;12.82;5.78;;;20.40;99.90;;;;;;5088581;28;20082;-76
2023/07/17 00:13:30;;;;;;;8.50;4.35;;;20.30;99.90;;;;;;5080044;28;20035;-77
2023/07/17 00:15:56;;;;;;;8.77;4.88;;;20.30;99.90;;;;;;5084489;28;20020;-73
2023/07/17 00:18:22;;;;;;;7.68;4.13;;;20.30;99.90;;;;;;5084978;28;20029;-75
2023/07/17 00:20:47;;;;;;;10.52;4.60;;;20.30;99.90;;;;;;5087585;28;20109;-74
2023/07/17 00:23:13;;;;;;;8.77;4.57;;;20.30;99.90;;;;;;5081166;28;20035;-73
2023/07/17 00:25:38;;;;;;;9.85;5.15;;;20.20;99.90;;;;;;5083867;28;20024;-75
2023/07/17 00:28:04;;;;;;;7.75;4.80;;;20.20;99.90;;;;;;5085675;28;20096;-74
2023/07/17 00:30:30;;;;;;;9.13;5.32;;;20.20;99.90;;;;;;5085846;28;20048;-73
2023/07/17 00:32:56;;;;;;;8.30;5.07;;;20.20;99.90;;;;;;5083320;28;20020;-75
2023/07/17 00:35:21;;;;;;;7.82;5.07;;;20.20;99.90;;;;;;5084484;28;20031;-74
2023/07/17 00:37:47;;;;;;;8.02;5.00;;;20.20;99.90;;;;;;5082950;28;20032;-72
2023/07/17 00:40:13;;;;;;;7.97;4.50;;;20.10;99.90;;;;;;5084774;28;20066;-73
2023/07/17 00:42:38;;;;;;;7.68;4.30;;;20.10;99.90;;;;;;5082227;28;20035;-72
2023/07/17 00:45:05;;;;;;;7.43;4.10;;;20.10;99.90;;;;;;5082722;28;20431;-72
2023/07/17 00:47:32;;;;;;;9.18;4.20;;;20.00;99.90;;;;;;5086221;28;20028;-72
2023/07/17 00:49:58;;;;;;;11.55;4.78;;;20.10;99.90;;;;;;5082444;28;20540;-73
2023/07/17 00:52:25;;;;;;;7.85;5.25;;;20.10;99.90;;;;;;5083458;28;20038;-72
2023/07/17 00:54:51;;;;;;;8.45;5.00;;;20.10;99.90;;;;;;5085694;28;20024;-73
2023/07/17 00:57:18;;;;;;;6.30;4.30;;;20.00;99.90;;;;;;5078911;28;20523;-73
2023/07/17 00:59:44;;;;;;;6.43;4.60;;;20.00;99.90;;;;;;5082284;28;20027;-72
2023/07/17 01:02:13;;;;;;;8.35;4.45;;;20.00;99.90;;;;;;5084020;28;20480;-72
2023/07/17 01:04:44;;;;;;;7.72;4.22;;;20.00;99.90;;;;;;5080930;28;20033;-72
2023/07/17 01:07:10;;;;;;;7.47;4.13;;;20.00;99.90;;;;;;5082294;28;20020;-72
2023/07/17 01:09:35;;;;;;;7.18;4.38;;;19.90;99.90;;;;;;5085458;28;20107;-72
2023/07/17 01:12:02;;;;;;;8.73;4.82;;;19.90;99.90;;;;;;5085230;28;20066;-72
2023/07/17 01:14:28;;;;;;;8.55;4.60;;;19.90;99.90;;;;;;5082039;28;20024;-72
2023/07/17 01:16:54;;;;;;;8.18;4.47;;;19.90;99.90;;;;;;5083058;28;20024;-72
2023/07/17 01:19:20;;;;;;;8.00;4.25;;;19.90;99.90;;;;;;5085254;28;20017;-72
2023/07/17 01:22:11;;;;;;;9.32;4.00;;;19.90;99.90;;;;;;5078415;28;20460;-73
2023/07/17 01:24:36;;;;;;;11.90;4.28;;;19.90;99.90;;;;;;5081745;28;20024;-73
2023/07/17 01:27:02;;;;;;;11.82;4.75;;;19.90;99.90;;;;;;5081800;28;20038;-73
2023/07/17 01:29:28;;;;;;;11.00;4.63;;;19.90;99.90;;;;;;5082336;28;20056;-72
2023/07/17 01:31:54;;;;;;;8.57;4.15;;;19.90;99.90;;;;;;5084373;28;20040;-72
2023/07/17 01:34:19;;;;;;;8.63;4.45;;;19.80;99.90;;;;;;5080991;28;20028;-72
2023/07/17 01:36:45;;;;;;;8.27;4.35;;;19.80;99.90;;;;;;5086617;28;20485;-72
2023/07/17 01:39:10;;;;;;;7.18;4.50;;;19.70;99.90;;;;;;5083969;28;20028;-73
2023/07/17 01:41:36;;;;;;;7.97;3.90;;;19.70;99.90;;;;;;5081358;28;20035;-73
2023/07/17 01:44:02;;;;;;;6.95;4.28;;;19.70;99.90;;;;;;5082178;28;20033;-73
2023/07/17 01:46:27;;;;;;;12.25;4.50;;;19.70;99.90;;;;;;5082964;28;20103;-72
2023/07/17 01:48:53;;;;;;;9.70;4.38;;;19.70;99.90;;;;;;5082628;28;20408;-73
2023/07/17 01:51:19;;;;;;;8.68;5.35;;;19.70;99.90;;;;;;5081413;28;20039;-73
2023/07/17 01:53:45;;;;;;;13.38;4.75;;;19.70;99.90;;;;;;5083997;28;20483;-73
2023/07/17 01:56:10;;;;;;;8.20;4.35;;;19.60;99.90;;;;;;5081176;28;20115;-73
2023/07/17 01:58:36;;;;;;;7.30;4.60;;;19.70;99.90;;;;;;5082622;28;20063;-73
2023/07/17 02:01:03;;;;;;;9.02;4.18;;;19.60;99.90;;;;;;5077672;28;20066;-73
2023/07/17 02:03:28;;;;;;;6.38;3.97;;;19.60;99.90;;;;;;5085191;28;20024;-72
2023/07/17 02:05:55;;;;;;;9.65;4.60;;;19.60;99.90;;;;;;5078356;28;20028;-72
2023/07/17 02:08:20;;;;;;;8.60;4.57;;;19.60;99.90;;;;;;5080548;28;20111;-72
2023/07/17 02:10:49;;;;;;;7.93;4.45;;;19.70;99.90;;;;;;5085604;28;20119;-73
2023/07/17 02:13:15;;;;;;;11.25;4.18;;;19.60;99.90;;;;;;5085681;28;20020;-72
2023/07/17 02:15:41;;;;;;;10.35;4.20;;;19.60;99.90;;;;;;5082668;28;20028;-73
2023/07/17 02:18:06;;;;;;;10.23;4.40;;;19.50;99.90;;;;;;5077607;28;20021;-73
2023/07/17 02:20:32;;;;;;;8.35;4.47;;;19.60;99.90;;;;;;5083377;28;20407;-73
2023/07/17 02:22:58;;;;;;;8.60;3.88;;;19.50;99.90;;;;;;5084474;28;20028;-72
2023/07/17 02:25:23;;;;;;;9.52;4.13;;;19.50;99.90;;;;;;5085321;28;20093;-72
2023/07/17 02:27:49;;;;;;;10.88;4.05;;;19.50;99.90;;;;;;5077414;28;20085;-72
2023/07/17 02:30:15;;;;;;;12.00;4.53;;;19.40;99.90;;;;;;5081046;28;20107;-73
2023/07/17 02:32:40;;;;;;;8.00;4.32;;;19.40;99.90;;;;;;5081251;28;20400;-72
2023/07/17 02:35:06;;;;;;;8.88;4.53;;;19.40;99.90;;;;;;5080605;28;20019;-72
2023/07/17 02:37:32;;;;;;;10.30;4.50;;;19.40;99.90;;;;;;5085147;28;20089;-72
2023/07/17 02:39:58;;;;;;;9.30;4.13;;;19.30;99.90;;;;;;5083527;28;20016;-72
2023/07/17 02:42:23;;;;;;;6.32;3.95;;;19.30;99.90;;;;;;5079194;28;20473;-72
2023/07/17 02:44:49;;;;;;;7.82;3.80;;;19.20;99.90;;;;;;5081277;28;20028;-72
2023/07/17 02:47:15;;;;;;;11.15;4.32;;;19.20;99.90;;;;;;5078633;28;20031;-72
2023/07/17 02:49:41;;;;;;;11.55;3.55;;;19.10;99.90;;;;;;5075367;28;20037;-72
2023/07/17 02:52:08;;;;;;;8.93;3.97;;;19.10;99.90;;;;;;5082504;28;20031;-72
2023/07/17 02:54:36;;;;;;;7.43;3.67;;;19.10;99.90;;;;;;5079558;28;20012;-72
2023/07/17 02:57:05;;;;;;;6.80;3.90;;;19.00;99.90;;;;;;5079799;28;20510;-72
2023/07/17 02:59:31;;;;;;;10.73;4.55;;;19.00;99.90;;;;;;5082587;28;20028;-72
2023/07/17 03:01:57;;;;;;;8.82;3.90;;;19.00;99.90;;;;;;5078949;28;20032;-72
2023/07/17 03:04:24;;;;;;;6.93;3.80;;;19.00;99.90;;;;;;5083863;28;20016;-72
2023/07/17 03:06:50;;;;;;;9.38;4.03;;;18.90;99.90;;;;;;5078361;28;20024;-72
2023/07/17 03:09:16;;;;;;;7.40;3.92;;;18.90;99.90;;;;;;5082979;28;20062;-72
2023/07/17 03:11:41;;;;;;;7.35;3.80;;;18.90;99.90;;;;;;5077007;28;20032;-72
2023/07/17 03:14:07;;;;;;;6.40;3.97;;;18.90;99.90;;;;;;5080473;28;20437;-72
2023/07/17 03:16:33;;;;;;;8.77;4.20;;;18.90;99.90;;;;;;5083834;28;20433;-72
2023/07/17 03:18:58;;;;;;;6.65;3.70;;;18.80;99.90;;;;;;5085172;28;20407;-72
2023/07/17 03:21:24;;;;;;;9.68;4.85;;;18.80;99.90;;;;;;5077882;28;20542;-72
2023/07/17 03:23:49;;;;;;;13.15;5.10;;;18.80;99.90;;;;;;5081804;28;20020;-72
2023/07/17 03:26:15;;;;;;;9.52;4.07;;;18.70;99.90;;;;;;5076121;28;20024;-72
2023/07/17 03:28:41;;;;;;;8.65;3.83;;;18.70;99.90;;;;;;5080577;28;20032;-72
2023/07/17 03:31:09;;;;;;;12.07;4.43;;;18.70;99.90;;;;;;5080888;28;20031;-72
2023/07/17 03:33:35;;;;;;;10.57;4.32;;;18.70;99.90;;;;;;5080830;28;20472;-72
2023/07/17 03:36:01;;;;;;;9.45;4.13;;;18.60;99.90;;;;;;5079938;28;20032;-72
2023/07/17 03:38:26;;;;;;;7.80;4.07;;;18.60;99.90;;;;;;5080772;28;20078;-72
2023/07/17 03:40:52;;;;;;;6.35;4.00;;;18.60;99.90;;;;;;5081834;28;20111;-73
2023/07/17 03:43:17;;;;;;;10.13;4.70;;;18.60;99.90;;;;;;5079457;28;20031;-73
2023/07/17 03:45:43;;;;;;;12.63;4.60;;;18.50;99.90;;;;;;5084040;28;20119;-72
2023/07/17 03:48:09;;;;;;;8.55;4.22;;;18.50;99.90;;;;;;5083358;28;20411;-72
2023/07/17 03:50:36;;;;;;;9.05;4.38;;;18.50;99.90;;;;;;5080519;28;20085;-72
2023/07/17 03:53:01;;;;;;;8.55;4.50;;;18.40;99.90;;;;;;5082300;28;20028;-72
2023/07/17 03:55:27;;;;;;;10.35;4.30;;;18.40;99.90;;;;;;5079471;28;21055;-72
2023/07/17 03:57:52;;;;;;;11.77;4.85;;;18.40;99.90;;;;;;5079668;28;20430;-72
2023/07/17 04:00:18;;;;;;;14.05;3.95;;;18.30;99.90;;;;;;5080048;28;20516;-72
2023/07/17 04:02:44;;;;;;;6.50;4.05;;;18.30;99.90;;;;;;5084402;28;20020;-73
2023/07/17 04:05:10;;;;;;;12.27;4.60;;;18.30;99.90;;;;;;5085689;28;20018;-72
2023/07/17 04:07:36;;;;;;;9.13;4.22;;;18.30;99.90;;;;;;5083016;28;20045;-73
2023/07/17 04:10:03;;;;;;;9.60;4.53;;;18.30;99.90;;;;;;5084040;28;20068;-72
2023/07/17 04:12:29;;;;;;;9.48;4.07;;;18.30;99.90;;;;;;5080611;28;20023;-72
2023/07/17 04:14:54;;;;;;;9.35;4.40;;;18.20;99.90;;;;;;5073748;28;20024;-72
2023/07/17 04:17:20;;;;;;;6.40;3.55;;;18.20;99.90;;;;;;5077953;28;20024;-73
2023/07/17 04:19:46;;;;;;;7.97;4.07;;;18.30;99.90;;;;;;5077526;28;20028;-72
2023/07/17 04:22:11;;;;;;;10.55;4.00;;;18.20;99.90;;;;;;5086587;28;20024;-72
2023/07/17 04:24:37;;;;;;;9.52;3.80;;;18.20;99.90;;;;;;5080935;28;20028;-72
2023/07/17 04:27:03;;;;;;;6.38;3.80;;;18.20;99.90;;;;;;5078195;28;20024;-72
2023/07/17 04:29:29;;;;;;;10.93;4.18;;;18.10;99.90;;;;;;5090624;28;20538;-72
2023/07/17 04:31:54;;;;;;;8.25;4.53;;;18.10;99.90;;;;;;5090811;28;20047;-72
2023/07/17 04:34:20;;;;;;;7.35;4.00;;;18.10;99.90;;;;;;5087874;28;20027;-72
2023/07/17 04:36:46;;;;;;;10.23;4.18;;;18.10;99.90;;;;;;5082749;28;20062;-73
2023/07/17 04:39:12;;;;;;;6.40;3.65;;;18.00;99.90;;;;;;5081404;28;20043;-72
2023/07/17 04:41:39;;;;;;;7.82;3.47;;;18.00;99.90;;;;;;5084843;28;20020;-72
2023/07/17 04:44:05;;;;;;;15.13;4.28;;;18.00;99.90;;;;;;5084739;28;20103;-72
2023/07/17 04:46:30;;;;;;;10.95;3.97;;;18.10;99.90;;;;;;5084673;28;20452;-73
2023/07/17 04:48:57;;;;;;;10.25;4.20;;;18.10;99.90;;;;;;5080307;28;20488;-73
2023/07/17 04:51:22;;;;;;;6.57;3.75;;;17.90;99.90;;;;;;5084469;28;20123;-73
2023/07/17 04:53:48;;;;;;;8.88;3.97;;;17.90;99.90;;;;;;5079678;28;20111;-72
2023/07/17 04:56:14;;;;;;;10.27;3.75;;;17.90;99.90;;;;;;5080369;28;20024;-72
2023/07/17 04:58:39;;;;;;;9.90;4.00;;;17.90;99.90;;;;;;5077370;28;20039;-72
2023/07/17 05:01:05;;;;;;;11.27;4.10;;;17.90;99.90;;;;;;5084729;28;20023;-72
2023/07/17 05:03:31;;;;;;;9.68;4.63;;;17.90;99.90;;;;;;5083773;28;20020;-72
2023/07/17 05:05:57;;;;;;;8.90;3.90;;;17.90;99.90;;;;;;5084131;28;20023;-72
2023/07/17 05:08:25;;;;;;;7.78;3.55;;;18.00;99.90;;;;;;5087619;28;20103;-72
2023/07/17 05:11:02;;;;;;;7.53;3.55;;;18.00;99.90;;;;;;5082089;28;20043;-72
2023/07/17 05:13:28;;;;;;;6.35;3.50;;;18.00;99.90;;;;;;5076094;28;20023;-72
2023/07/17 05:15:54;;;;;;;6.72;3.75;;;18.00;99.90;;;;;;5085936;28;20030;-72
2023/07/17 05:18:20;;;;;;;9.95;3.75;;;18.10;99.90;;;;;;5086821;28;20043;-71
2023/07/17 05:20:47;;;;;;;4.50;3.10;;;18.10;99.90;;;;;;5081343;28;20041;-72
2023/07/17 05:23:13;;;;;;;10.15;3.35;;;18.10;99.90;;;;;;5085062;28;20066;-72
2023/07/17 05:25:39;;;;;;;10.23;3.63;;;18.00;99.90;;;;;;5081205;28;20021;-72
2023/07/17 05:28:05;;;;;;;8.88;3.60;;;18.10;99.90;;;;;;5087323;28;20172;-72
2023/07/17 05:30:35;;;;;;;9.23;3.40;;;18.10;99.90;;;;;;5081879;28;20058;-73
2023/07/17 05:33:01;;;;;;;7.03;3.10;;;18.10;99.90;;;;;;5082779;28;20470;-72
2023/07/17 05:35:28;;;;;;;11.93;3.90;;;18.10;99.90;;;;;;5081623;28;20027;-72
2023/07/17 05:37:54;;;;;;;8.50;3.55;;;18.00;99.90;;;;;;5081463;28;20031;-72
2023/07/17 05:40:20;;;;;;;6.30;3.63;;;18.10;99.90;;;;;;5082569;28;20036;-72
2023/07/17 05:42:46;;;;;;;7.07;3.47;;;18.10;99.90;;;;;;5079220;28;20024;-72
2023/07/17 05:45:11;;;;;;;7.00;3.53;;;18.10;99.90;;;;;;5084071;28;20158;-73
2023/07/17 05:47:38;;;;;;;16.00;3.83;;;18.10;99.90;;;;;;5080660;28;20024;-72
2023/07/17 05:50:04;;;;;;;6.30;3.53;;;18.10;99.90;;;;;;5081215;28;20028;-72
2023/07/17 05:52:30;;;;;;;12.25;3.95;;;18.20;99.90;;;;;;5081694;28;20431;-72
2023/07/17 05:54:55;;;;;;;9.07;4.40;;;18.10;99.90;;;;;;5080045;28;20024;-72
2023/07/17 05:57:21;;;;;;;13.38;4.47;;;18.10;99.90;;;;;;5084627;28;20046;-71
2023/07/17 05:59:47;;;;;;;10.32;4.65;;;18.10;99.90;;;;;;5079551;28;20043;-72
2023/07/17 06:02:13;;;;;;;10.70;4.32;;;18.10;99.90;;;;;;5078296;28;20028;-72
2023/07/17 06:04:38;;;;;;;12.95;4.50;;;18.10;99.90;;;;;;5083312;28;20016;-72
2023/07/17 06:07:04;;;;;;;9.77;4.63;;;18.10;99.90;;;;;;5088052;28;20055;-72
2023/07/17 06:09:30;;;;;;;16.98;5.30;;;18.10;99.90;;;;;;5077986;28;20427;-73
2023/07/17 06:11:57;;;;;;;13.52;4.95;;;18.10;99.90;;;;;;5081072;28;20055;-71
2023/07/17 06:14:22;;;;;;;12.00;5.35;;;18.20;99.90;;;;;;5079525;28;20047;-71
2023/07/17 06:16:48;;;;;;;10.23;5.45;;;18.20;99.90;;;;;;5083650;28;20385;-71
2023/07/17 06:19:14;;;;;;;15.35;5.70;;;18.20;99.90;;;;;;5075037;28;20055;-71
2023/07/17 06:21:40;;;;;;;15.77;5.72;;;18.30;99.90;;;;;;5085309;28;20476;-72
2023/07/17 06:24:07;;;;;;;10.60;5.47;;;18.10;99.90;;;;;;5082824;28;20028;-70
2023/07/17 06:26:34;;;;;;;16.75;6.28;;;18.20;99.90;;;;;;5081810;28;20024;-70
2023/07/17 06:28:59;;;;;;;13.30;6.35;;;18.20;99.90;;;;;;5079603;28;20032;-71
2023/07/17 06:31:25;;;;;;;15.82;6.88;;;18.30;99.90;;;;;;5081119;28;20040;-71
2023/07/17 06:33:51;;;;;;;12.35;5.97;;;18.40;99.90;;;;;;5080495;28;20069;-70
2023/07/17 06:36:16;;;;;;;13.80;5.60;;;18.50;99.90;;;;;;5081645;28;20058;-71
2023/07/17 06:38:42;;;;;;;13.68;6.15;;;18.40;99.90;;;;;;5078266;28;20063;-70
2023/07/17 06:41:07;;;;;;;17.13;6.40;;;18.50;99.90;;;;;;5082105;28;20162;-71
2023/07/17 06:43:33;;;;;;;15.00;5.78;;;18.50;99.90;;;;;;5080058;28;20028;-77
2023/07/17 06:45:59;;;;;;;10.70;5.57;;;18.50;99.90;;;;;;5082833;28;20028;-71
2023/07/17 06:48:24;;;;;;;13.85;5.78;;;18.50;99.90;;;;;;5079395;28;20028;-70
2023/07/17 06:50:50;;;;;;;14.48;6.10;;;18.60;99.90;;;;;;5075520;28;20147;-70
2023/07/17 06:53:16;;;;;;;10.48;5.25;;;18.60;99.90;;;;;;5080316;28;20052;-71
2023/07/17 06:55:42;;;;;;;10.50;5.18;;;18.60;99.90;;;;;;5079151;28;20388;-71
2023/07/17 06:58:07;;;;;;;12.75;6.28;;;18.60;99.90;;;;;;5081253;28;20059;-70
2023/07/17 07:00:33;;;;;;;13.93;5.85;;;18.70;99.90;;;;;;5078461;28;20055;-70
2023/07/17 07:02:59;;;;;;;11.43;5.15;;;18.70;99.90;;;;;;5083281;28;20113;-70
2023/07/17 07:05:25;;;;;;;11.55;4.70;;;18.80;99.90;;;;;;5078197;28;20032;-70
2023/07/17 07:07:51;;;;;;;19.75;6.47;;;18.80;99.90;;;;;;5079284;28;20020;-70
2023/07/17 07:10:16;;;;;;;11.98;5.57;;;18.90;99.90;;;;;;5083164;28;20057;-70
2023/07/17 07:12:42;;;;;;;11.48;5.30;;;19.00;99.90;;;;;;5081360;28;20031;-71
2023/07/17 07:15:09;;;;;;;8.77;5.13;;;19.10;99.90;;;;;;5078132;28;20129;-71
2023/07/17 07:17:35;;;;;;;9.40;5.13;;;19.20;99.90;;;;;;5079336;28;20035;-73
2023/07/17 07:20:00;;;;;;;10.20;4.90;;;19.30;99.90;;;;;;5084079;28;20423;-72
2023/07/17 07:22:26;;;;;;;11.02;4.57;;;19.40;99.90;;;;;;5076029;28;20070;-74
2023/07/17 07:24:52;;;;;;;11.70;5.65;;;19.60;99.90;;;;;;5080446;28;20032;-71
2023/07/17 07:27:18;;;;;;;11.98;5.45;;;19.70;99.90;;;;;;5082815;28;20023;-75
2023/07/17 07:29:43;;;;;;;13.18;5.47;;;19.70;99.90;;;;;;5075282;28;20040;-71
2023/07/17 07:32:09;;;;;;;11.98;5.10;;;19.80;99.90;;;;;;5081924;28;20047;-73
2023/07/17 07:34:35;;;;;;;17.00;5.85;;;19.90;99.90;;;;;;5076521;28;20550;-72
2023/07/17 07:37:02;;;;;;;12.02;5.35;;;20.10;99.90;;;;;;5079385;28;20028;-71
2023/07/17 07:39:28;;;;;;;12.32;5.50;;;20.20;99.90;;;;;;5082823;28;20500;-74
2023/07/17 07:41:54;;;;;;;14.00;5.10;;;20.10;99.90;;;;;;5085306;28;20056;-72
2023/07/17 07:44:19;;;;;;;11.15;4.95;;;20.20;99.90;;;;;;5080314;28;20021;-70
2023/07/17 07:46:45;;;;;;;9.45;5.00;;;20.40;99.90;;;;;;5079238;28;20055;-71
2023/07/17 07:49:11;;;;;;;11.05;6.13;;;20.50;99.90;;;;;;5081526;28;20048;-70
2023/07/17 07:51:36;;;;;;;9.27;4.97;;;20.60;99.90;;;;;;5079905;28;20035;-74
2023/07/17 07:54:03;;;;;;;11.02;5.55;;;20.70;99.90;;;;;;5083511;28;20021;-73
2023/07/17 07:56:28;;;;;;;12.02;5.80;;;20.70;99.90;;;;;;5075186;28;20032;-71
2023/07/17 07:58:54;;;;;;;11.35;4.85;;;20.70;99.90;;;;;;5079588;28;20441;-72
2023/07/17 08:01:20;;;;;;;10.23;5.15;;;20.80;99.90;;;;;;5079638;28;20034;-77
2023/07/17 08:03:45;;;;;;;11.93;5.72;;;21.00;99.90;;;;;;5091185;28;20042;-73
2023/07/17 08:06:11;;;;;;;10.35;4.70;;;21.00;99.90;;;;;;5081322;28;20037;-69
2023/07/17 08:08:37;;;;;;;7.25;4.90;;;21.00;99.90;;;;;;5083720;28;20066;-70
2023/07/17 08:11:02;;;;;;;8.52;4.80;;;21.00;99.90;;;;;;5083445;28;20132;-71
2023/07/17 08:13:28;;;;;;;11.18;5.60;;;20.90;99.90;;;;;;5081377;28;20042;-74
2023/07/17 08:15:54;;;;;;;9.13;5.35;;;21.00;99.90;;;;;;5083537;28;20035;-74
2023/07/17 08:18:19;;;;;;;11.23;4.65;;;21.00;99.90;;;;;;5081055;28;20081;-72
2023/07/17 08:20:46;;;;;;;13.10;4.80;;;21.10;99.90;;;;;;5082010;28;20016;-72
2023/07/17 08:23:11;;;;;;;12.38;5.15;;;21.20;99.90;;;;;;5080993;28;20024;-72
2023/07/17 08:25:38;;;;;;;12.65;5.07;;;21.20;99.90;;;;;;5086298;28;20025;-73
2023/07/17 08:28:04;;;;;;;13.35;6.15;;;21.20;99.90;;;;;;5084711;28;20383;-73
2023/07/17 08:30:29;;;;;;;9.88;5.15;;;21.30;99.90;;;;;;5081358;28;20032;-73
2023/07/17 08:32:55;;;;;;;6.85;4.15;;;21.40;99.90;;;;;;5081746;28;20338;-72
2023/07/17 08:35:21;;;;;;;9.40;4.95;;;21.30;99.90;;;;;;5081541;28;20034;-72
2023/07/17 08:37:46;;;;;;;6.63;4.25;;;21.30;99.90;;;;;;5082507;28;20024;-73
2023/07/17 08:40:12;;;;;;;10.93;4.43;;;21.40;99.90;;;;;;5084792;28;20099;-74
2023/07/17 08:42:44;;;;;;;11.30;4.40;;;21.60;99.90;;;;;;5082394;28;20028;-73
2023/07/17 08:45:12;;;;;;;14.20;4.60;;;21.70;99.90;;;;;;5078287;28;20032;-73
2023/07/17 08:47:38;;;;;;;8.85;4.60;;;21.90;99.90;;;;;;5079699;28;20596;-73
2023/07/17 08:50:05;;;;;;;10.10;4.53;;;21.90;99.90;;;;;;5079806;28;20476;-73
2023/07/17 08:52:32;;;;;;;9.90;4.25;;;22.00;99.90;;;;;;5085872;28;20115;-71
2023/07/17 08:54:58;;;;;;;7.53;3.75;;;22.00;99.90;;;;;;5086379;28;20074;-73
2023/07/17 08:57:26;;;;;;;7.75;4.20;;;22.00;99.90;;;;;;5080821;28;20485;-73
2023/07/17 08:59:51;;;;;;;7.30;4.05;;;22.00;99.90;;;;;;5077318;28;20040;-73
2023/07/17 09:02:19;;;;;;;8.73;4.25;;;22.10;99.90;;;;;;5078616;28;20024;-72
2023/07/17 09:04:44;;;;;;;7.82;4.35;;;22.20;99.90;;;;;;5082245;28;20013;-73
2023/07/17 09:07:10;;;;;;;5.80;4.35;;;22.40;99.90;;;;;;5088029;28;20028;-73
2023/07/17 09:09:36;;;;;;;5.88;4.00;;;22.50;99.90;;;;;;5080863;28;20107;-73
2023/07/17 09:12:11;;;;;;;7.18;4.18;;;22.50;99.90;;;;;;5079376;28;20182;-73
2023/07/17 09:14:39;;;;;;;7.88;4.68;;;22.60;99.90;;;;;;5079180;28;20028;-73
2023/07/17 09:17:07;;;;;;;6.25;4.10;;;22.90;99.90;;;;;;5081926;28;20028;-73
2023/07/17 09:19:34;;;;;;;6.47;4.03;;;22.90;99.90;;;;;;5083977;28;20025;-73
2023/07/17 09:22:05;;;;;;;8.52;4.53;;;22.90;99.90;;;;;;5082642;28;20056;-74
2023/07/17 09:24:36;;;;;;;9.18;4.57;;;22.80;99.90;;;;;;5082801;28;20028;-74
2023/07/17 09:27:07;;;;;;;8.63;4.63;;;22.70;99.90;;;;;;5080932;28;20031;-72
2023/07/17 09:29:33;;;;;;;9.27;4.75;;;22.70;99.90;;;;;;5085682;28;20024;-73
2023/07/17 09:32:22;;;;;;;9.57;5.20;;;22.60;99.90;;;;;;5082360;28;20071;-73
2023/07/17 09:34:52;;;;;;;10.32;5.22;;;22.60;99.90;;;;;;5083083;28;20035;-75
2023/07/17 09:37:18;;;;;;;8.82;5.35;;;22.60;99.90;;;;;;5083247;28;20064;-73
2023/07/17 09:39:44;;;;;;;7.82;5.30;;;22.50;99.90;;;;;;5089565;28;20063;-73
2023/07/17 09:42:25;;;;;;;8.07;5.30;;;22.60;99.90;;;;;;5082988;28;20385;-73
2023/07/17 09:44:52;;;;;;;8.85;5.03;;;22.50;99.90;;;;;;5077980;28;20537;-73
2023/07/17 09:47:21;;;;;;;9.50;4.78;;;22.60;99.90;;;;;;5082641;28;20016;-73
2023/07/17 09:49:54;;;;;;;9.75;5.10;;;22.80;99.90;;;;;;5091330;28;20052;-73
2023/07/17 09:52:20;;;;;;;8.27;4.50;;;22.80;99.90;;;;;;5078583;28;20416;-73
2023/07/17 09:54:49;;;;;;;6.75;4.22;;;22.70;99.90;;;;;;5081272;28;20009;-72
2023/07/17 09:57:37;;;;;;;7.28;4.40;;;22.50;99.90;;;;;;5090353;28;20468;-72
2023/07/17 10:00:13;;;;;;;7.55;4.38;;;22.50;99.90;;;;;;5085319;28;20051;-72
2023/07/17 10:02:56;;;;;;;13.73;5.13;;;22.60;99.90;;;;;;5086297;28;20020;-72
2023/07/17 10:05:22;;;;;;;10.95;4.75;;;22.50;99.90;;;;;;5077897;28;20029;-72
2023/07/17 10:07:49;;;;;;;9.25;4.80;;;22.50;99.90;;;;;;5081044;28;20086;-73
2023/07/17 10:10:14;;;;;;;8.15;4.97;;;22.70;99.90;;;;;;5083037;28;20020;-72
2023/07/17 10:12:41;;;;;;;8.60;5.13;;;23.10;99.90;;;;;;5081347;28;20039;-72
2023/07/17 10:15:08;;;;;;;9.68;4.95;;;23.10;99.90;;;;;;5082820;28;20016;-73
2023/07/17 10:17:35;;;;;;;12.07;5.35;;;23.50;99.90;;;;;;5079882;28;20032;-72
2023/07/17 10:20:06;;;;;;;7.47;5.00;;;23.50;99.90;;;;;;5082562;28;20038;-74
2023/07/17 10:22:34;;;;;;;9.13;4.90;;;23.20;99.90;;;;;;5079141;28;20090;-74
2023/07/17 10:25:15;;;;;;;11.10;5.35;;;23.40;99.90;;;;;;5081129;28;20032;-74
2023/07/17 10:27:45;;;;;;;10.07;5.72;;;23.70;99.90;;;;;;5077818;28;20032;-72
2023/07/17 10:30:30;;;;;;;9.82;5.68;;;23.90;99.90;;;;;;5074584;28;20043;-72
2023/07/17 10:33:14;;;;;;;7.63;5.35;;;23.90;99.90;;;;;;5083692;28;20032;-72
2023/07/17 10:35:55;;;;;;;10.75;4.93;;;23.90;99.90;;;;;;5077572;28;20056;-73
2023/07/17 10:38:31;;;;;;;9.55;5.15;;;23.80;99.90;;;;;;5076689;28;20031;-72
2023/07/17 10:41:14;;;;;;;9.82;5.07;;;23.80;99.90;;;;;;5084357;28;20032;-73
2023/07/17 10:43:53;;;;;;;6.10;4.88;;;23.70;99.90;;;;;;5085963;28;20020;-72
2023/07/17 10:46:19;;;;;;;9.73;5.38;;;23.60;99.90;;;;;;5079810;28;20020;-72
2023/07/17 10:48:44;;;;;;;9.18;5.80;;;23.40;99.90;;;;;;5088204;28;20023;-73
2023/07/17 10:51:10;;;;;;;10.27;5.40;;;23.30;99.90;;;;;;5078107;28;20041;-75
2023/07/17 10:53:36;;;;;;;7.38;6.05;;;23.30;99.90;;;;;;5080338;28;20046;-72
2023/07/17 10:56:02;;;;;;;8.82;5.80;;;23.20;99.90;;;;;;5084392;28;20465;-76
2023/07/17 10:58:27;;;;;;;10.68;5.70;;;23.10;99.90;;;;;;5086727;28;20396;-72
2023/07/17 11:00:54;;;;;;;11.35;6.53;;;23.10;99.90;;;;;;5079740;28;20043;-72
2023/07/17 11:03:22;;;;;;;9.32;6.43;;;23.10;99.90;;;;;;5077478;28;20097;-73
2023/07/17 11:05:52;;;;;;;13.57;6.10;;;23.20;99.90;;;;;;5074740;28;20027;-73
2023/07/17 11:08:18;;;;;;;12.02;5.63;;;23.40;99.90;;;;;;5078064;28;20029;-72
2023/07/17 11:10:44;;;;;;;13.52;5.30;;;23.50;99.90;;;;;;5076163;28;20051;-72
2023/07/17 11:13:10;;;;;;;10.43;5.45;;;23.50;99.90;;;;;;5076874;28;20051;-75
2023/07/17 11:15:37;;;;;;;9.82;6.13;;;23.40;99.90;;;;;;5079416;28;20040;-76
2023/07/17 11:18:04;;;;;;;8.98;5.38;;;23.70;99.90;;;;;;5079836;28;20017;-73
2023/07/17 11:20:31;;;;;;;14.40;5.65;;;24.00;99.90;;;;;;5076232;28;20039;-72
2023/07/17 11:22:58;;;;;;;9.30;5.28;;;23.80;99.90;;;;;;5080694;28;20020;-71
2023/07/17 11:25:31;;;;;;;8.10;4.80;;;23.70;99.90;;;;;;5081590;28;20503;-72
2023/07/17 11:28:00;;;;;;;8.20;4.88;;;23.70;99.90;;;;;;5082443;28;20028;-72
2023/07/17 11:30:32;;;;;;;13.32;5.53;;;23.80;99.90;;;;;;5083473;28;20115;-71
2023/07/17 11:32:57;;;;;;;9.70;6.10;;;24.20;99.90;;;;;;5079074;28;20059;-71
2023/07/17 11:35:38;;;;;;;5.90;4.63;;;24.60;99.90;;;;;;5082715;28;20317;-72
2023/07/17 11:38:14;;;;;;;11.52;5.00;;;24.90;99.90;;;;;;5090215;28;20043;-73
2023/07/17 11:40:53;;;;;;;7.55;4.85;;;25.10;99.90;;;;;;5086252;28;20024;-72
2023/07/17 11:43:31;;;;;;;8.48;5.35;;;24.80;99.90;;;;;;5080528;28;20061;-76
2023/07/17 11:46:01;;;;;;;9.52;5.30;;;24.90;99.90;;;;;;5085148;28;20021;-72
2023/07/17 11:48:31;;;;;;;8.30;5.22;;;25.10;99.90;;;;;;5087901;28;20076;-72
2023/07/17 11:51:00;;;;;;;8.45;4.88;;;24.90;99.90;;;;;;5083682;28;20047;-72
2023/07/17 11:53:27;;;;;;;10.80;4.95;;;24.90;99.90;;;;;;5085701;28;20101;-73
2023/07/17 11:55:53;;;;;;;10.10;5.80;;;24.80;99.90;;;;;;5083054;28;20025;-72
2023/07/17 11:58:23;;;;;;;10.15;5.65;;;24.70;99.90;;;;;;5085455;28;20077;-73
2023/07/17 12:00:52;;;;;;;8.10;4.97;;;24.40;99.90;;;;;;5083822;28;20107;-73
2023/07/17 12:03:17;;;;;;;8.93;4.88;;;24.60;99.90;;;;;;5082110;28;20025;-74
2023/07/17 12:05:43;;;;;;;9.45;5.50;;;24.60;99.90;;;;;;5083201;28;20373;-73
2023/07/17 12:08:09;;;;;;;7.55;4.82;;;25.00;99.90;;;;;;5091795;28;20091;-72
2023/07/17 12:10:38;;;;;;;9.02;4.95;;;24.90;99.90;;;;;;5087662;28;20040;-71
2023/07/17 12:13:04;;;;;;;7.53;4.88;;;24.80;99.90;;;;;;5078995;28;20148;-74
2023/07/17 12:15:31;;;;;;;8.68;5.40;;;24.60;99.90;;;;;;5081146;28;20025;-73
2023/07/17 12:17:57;;;;;;;9.85;4.90;;;24.50;99.90;;;;;;5089539;28;20024;-72
2023/07/17 12:20:23;;;;;;;9.00;4.85;;;24.50;99.90;;;;;;5083683;28;20028;-73
2023/07/17 12:22:53;;;;;;;7.15;5.53;;;24.40;99.90;;;;;;5083355;28;20489;-71
2023/07/17 12:25:19;;;;;;;6.95;4.88;;;24.40;99.90;;;;;;5085595;28;20016;-72
2023/07/17 12:27:46;;;;;;;8.30;4.90;;;24.50;99.90;;;;;;5081754;28;20038;-71
2023/07/17 12:30:13;;;;;;;8.95;5.18;;;24.50;99.90;;;;;;5083043;28;20138;-71
2023/07/17 12:32:39;;;;;;;8.32;5.15;;;24.80;99.90;;;;;;5088560;28;20047;-74
2023/07/17 12:35:06;;;;;;;10.90;5.43;;;25.20;99.90;;;;;;5081267;28;20042;-74
2023/07/17 12:37:32;;;;;;;13.38;5.05;;;25.30;99.90;;;;;;5079748;28;20043;-73
2023/07/17 12:39:58;;;;;;;6.68;4.63;;;25.40;99.90;;;;;;5081696;28;20455;-73
2023/07/17 12:42:24;;;;;;;8.00;4.68;;;25.50;99.90;;;;;;5084451;28;20032;-74